sensor_id;sensor_type;location;lat;lon;timestamp;pressure;altitude;pressure_sealevel;temperature;humidity
73821;BME280;62150;43.582;1.456;2024-02-21T04:38:58;100906.19;;;10.17;100.00
73821;BME280;62150;43.582;1.456;2024-02-21T04:41:25;100895.50;;;10.66;100.00
73821;BME280;62150;43.582;1.456;2024-02-21T04:43:53;100889.00;;;10.84;100.00
73821;BME280;62150;43.582;1.456;2024-02-21T04:46:20;100891.44;;;10.89;100.00
73821;BME280;62150;43.582;1.456;2024-02-21T04:48:48;100888.66;;;10.96;100.00
73821;BME280;62150;43.582;1.456;2024-02-21T04:51:15;100887.78;;;10.97;100.00
73821;BME280;62150;43.582;1.456;2024-02-21T04:53:43;100886.13;;;10.95;100.00
73821;BME280;62150;43.582;1.456;2024-02-21T04:56:12;100885.38;;;10.91;100.00
73821;BME280;62150;43.582;1.456;2024-02-21T04:58:39;100891.53;;;10.86;100.00
73821;BME280;62150;43.582;1.456;2024-02-21T05:01:07;100892.31;;;10.88;100.00
73821;BME280;62150;43.582;1.456;2024-02-21T05:03:35;100893.13;;;10.90;100.00
73821;BME280;62150;43.582;1.456;2024-02-21T05:06:02;100889.91;;;10.82;100.00
73821;BME280;62150;43.582;1.456;2024-02-21T05:08:30;100886.69;;;10.75;100.00
73821;BME280;62150;43.582;1.456;2024-02-21T05:10:58;100882.22;;;10.82;100.00
73821;BME280;62150;43.582;1.456;2024-02-21T05:13:26;100885.06;;;10.72;100.00
73821;BME280;62150;43.582;1.456;2024-02-21T05:15:54;100888.06;;;10.56;100.00
73821;BME280;62150;43.582;1.456;2024-02-21T05:18:21;100889.56;;;10.64;100.00
73821;BME280;62150;43.582;1.456;2024-02-21T05:20:49;100892.97;;;10.65;100.00
73821;BME280;62150;43.582;1.456;2024-02-21T05:23:16;100880.84;;;10.70;100.00
73821;BME280;62150;43.582;1.456;2024-02-21T05:25:44;100879.41;;;10.60;100.00
73821;BME280;62150;43.582;1.456;2024-02-21T05:28:11;100886.94;;;10.66;100.00
73821;BME280;62150;43.582;1.456;2024-02-21T05:30:40;100891.44;;;10.58;100.00
73821;BME280;62150;43.582;1.456;2024-02-21T05:33:09;100893.78;;;10.67;100.00
73821;BME280;62150;43.582;1.456;2024-02-21T05:35:37;100895.66;;;10.60;100.00
73821;BME280;62150;43.582;1.456;2024-02-21T05:38:05;100896.47;;;10.62;100.00
73821;BME280;62150;43.582;1.456;2024-02-21T05:40:37;100893.13;;;10.59;100.00
73821;BME280;62150;43.582;1.456;2024-02-21T05:43:05;100892.28;;;10.58;100.00
73821;BME280;62150;43.582;1.456;2024-02-21T05:45:32;100884.63;;;10.57;100.00
73821;BME280;62150;43.582;1.456;2024-02-21T05:48:01;100889.88;;;10.52;100.00
73821;BME280;62150;43.582;1.456;2024-02-21T05:50:29;100882.00;;;10.58;100.00
73821;BME280;62150;43.582;1.456;2024-02-21T05:52:58;100872.66;;;10.56;100.00
73821;BME280;62150;43.582;1.456;2024-02-21T05:55:26;100873.53;;;10.55;100.00
73821;BME280;62150;43.582;1.456;2024-02-21T05:57:54;100879.59;;;10.52;100.00
73821;BME280;62150;43.582;1.456;2024-02-21T06:00:22;100861.69;;;10.49;100.00
73821;BME280;62150;43.582;1.456;2024-02-21T06:02:49;100860.81;;;10.50;100.00
73821;BME280;62150;43.582;1.456;2024-02-21T06:05:18;100871.06;;;10.52;100.00
73821;BME280;62150;43.582;1.456;2024-02-21T06:07:45;100869.22;;;10.57;100.00
73821;BME280;62150;43.582;1.456;2024-02-21T06:10:13;100864.22;;;10.51;100.00
73821;BME280;62150;43.582;1.456;2024-02-21T06:12:40;100859.09;;;10.51;100.00
73821;BME280;62150;43.582;1.456;2024-02-21T06:15:08;100857.53;;;10.45;100.00
73821;BME280;62150;43.582;1.456;2024-02-21T06:17:36;100851.50;;;10.46;100.00
73821;BME280;62150;43.582;1.456;2024-02-21T06:20:04;100854.13;;;10.45;100.00
73821;BME280;62150;43.582;1.456;2024-02-21T06:22:33;100855.81;;;10.46;100.00
73821;BME280;62150;43.582;1.456;2024-02-21T06:25:01;100851.84;;;10.34;100.00
73821;BME280;62150;43.582;1.456;2024-02-21T06:27:29;100852.69;;;10.34;100.00
73821;BME280;62150;43.582;1.456;2024-02-21T06:29:56;100844.91;;;10.37;100.00
73821;BME280;62150;43.582;1.456;2024-02-21T06:32:24;100844.28;;;10.29;100.00
73821;BME280;62150;43.582;1.456;2024-02-21T06:34:51;100846.84;;;10.29;100.00
73821;BME280;62150;43.582;1.456;2024-02-21T06:37:19;100848.69;;;10.24;100.00
73821;BME280;62150;43.582;1.456;2024-02-21T06:39:48;100846.19;;;10.21;100.00
73821;BME280;62150;43.582;1.456;2024-02-21T06:42:15;100846.28;;;10.17;100.00
73821;BME280;62150;43.582;1.456;2024-02-21T06:44:43;100848.81;;;10.20;100.00
73821;BME280;62150;43.582;1.456;2024-02-21T06:47:11;100856.50;;;10.20;100.00
73821;BME280;62150;43.582;1.456;2024-02-21T06:49:38;100865.75;;;10.27;100.00
73821;BME280;62150;43.582;1.456;2024-02-21T06:52:07;100873.53;;;10.24;100.00
73821;BME280;62150;43.582;1.456;2024-02-21T06:54:35;100872.69;;;10.23;100.00
73821;BME280;62150;43.582;1.456;2024-02-21T06:57:07;100871.00;;;10.22;100.00
73821;BME280;62150;43.582;1.456;2024-02-21T06:59:34;100881.25;;;10.22;100.00
73821;BME280;62150;43.582;1.456;2024-02-21T07:02:02;100879.63;;;10.18;100.00
73821;BME280;62150;43.582;1.456;2024-02-21T07:04:30;100866.00;;;10.15;100.00
73821;BME280;62150;43.582;1.456;2024-02-21T07:06:57;100868.50;;;10.19;100.00
73821;BME280;62150;43.582;1.456;2024-02-21T07:09:25;100858.22;;;10.19;100.00
73821;BME280;62150;43.582;1.456;2024-02-21T07:11:52;100854.88;;;10.16;100.00
73821;BME280;62150;43.582;1.456;2024-02-21T07:14:21;100854.75;;;10.22;100.00
73821;BME280;62150;43.582;1.456;2024-02-21T07:16:48;100858.28;;;10.16;100.00
73821;BME280;62150;43.582;1.456;2024-02-21T07:19:16;100857.47;;;10.14;100.00
73821;BME280;62150;43.582;1.456;2024-02-21T07:21:43;100855.75;;;10.15;100.00
73821;BME280;62150;43.582;1.456;2024-02-21T07:24:11;100860.03;;;10.14;100.00
73821;BME280;62150;43.582;1.456;2024-02-21T07:26:41;100863.44;;;10.15;100.00
73821;BME280;62150;43.582;1.456;2024-02-21T07:29:10;100862.66;;;10.13;100.00
73821;BME280;62150;43.582;1.456;2024-02-21T07:31:43;100861.72;;;10.15;100.00
73821;BME280;62150;43.582;1.456;2024-02-21T07:34:11;100863.44;;;10.15;100.00
73821;BME280;62150;43.582;1.456;2024-02-21T07:36:38;100871.16;;;10.15;100.00
73821;BME280;62150;43.582;1.456;2024-02-21T07:39:06;100870.38;;;10.11;100.00
73821;BME280;62150;43.582;1.456;2024-02-21T07:41:33;100867.00;;;10.09;100.00
73821;BME280;62150;43.582;1.456;2024-02-21T07:44:01;100857.59;;;10.09;100.00
73821;BME280;62150;43.582;1.456;2024-02-21T07:46:29;100854.34;;;10.03;100.00
73821;BME280;62150;43.582;1.456;2024-02-21T07:48:58;100868.78;;;10.07;100.00
73821;BME280;62150;43.582;1.456;2024-02-21T07:51:28;100863.78;;;10.02;100.00
73821;BME280;62150;43.582;1.456;2024-02-21T07:53:55;100861.06;;;10.07;100.00
73821;BME280;62150;43.582;1.456;2024-02-21T07:56:23;100855.19;;;10.03;100.00
73821;BME280;62150;43.582;1.456;2024-02-21T07:58:50;100860.25;;;10.05;100.00
73821;BME280;62150;43.582;1.456;2024-02-21T08:01:19;100850.22;;;9.97;100.00
73821;BME280;62150;43.582;1.456;2024-02-21T08:03:47;100856.31;;;9.93;100.00
73821;BME280;62150;43.582;1.456;2024-02-21T08:06:16;100846.84;;;9.95;100.00
73821;BME280;62150;43.582;1.456;2024-02-21T08:08:43;100846.59;;;9.70;100.00
73821;BME280;62150;43.582;1.456;2024-02-21T08:11:11;100833.00;;;9.67;100.00
73821;BME280;62150;43.582;1.456;2024-02-21T08:13:38;100834.53;;;9.74;100.00
73821;BME280;62150;43.582;1.456;2024-02-21T08:16:06;100831.16;;;9.72;100.00
73821;BME280;62150;43.582;1.456;2024-02-21T08:18:34;100818.75;;;9.89;100.00
73821;BME280;62150;43.582;1.456;2024-02-21T08:21:03;100821.91;;;10.00;100.00
73821;BME280;62150;43.582;1.456;2024-02-21T08:23:32;100821.47;;;9.83;100.00
73821;BME280;62150;43.582;1.456;2024-02-21T08:26:02;100817.72;;;9.96;100.00
73821;BME280;62150;43.582;1.456;2024-02-21T08:28:30;100814.06;;;10.05;100.00
73821;BME280;62150;43.582;1.456;2024-02-21T08:30:57;100823.81;;;9.92;100.00
73821;BME280;62150;43.582;1.456;2024-02-21T08:33:25;100823.44;;;10.06;100.00
73821;BME280;62150;43.582;1.456;2024-02-21T08:35:52;100825.34;;;9.99;100.00
73821;BME280;62150;43.582;1.456;2024-02-21T08:38:20;100830.94;;;10.14;100.00
73821;BME280;62150;43.582;1.456;2024-02-21T08:40:49;100836.34;;;10.04;100.00
73821;BME280;62150;43.582;1.456;2024-02-21T08:43:17;100835.41;;;10.07;100.00
73821;BME280;62150;43.582;1.456;2024-02-21T08:45:44;100844.63;;;10.14;100.00
73821;BME280;62150;43.582;1.456;2024-02-21T08:48:12;100836.75;;;9.88;100.00
73821;BME280;62150;43.582;1.456;2024-02-21T08:50:39;100838.66;;;10.14;100.00
73821;BME280;62150;43.582;1.456;2024-02-21T08:53:07;100830.84;;;10.18;100.00
73821;BME280;62150;43.582;1.456;2024-02-21T08:55:34;100840.03;;;10.28;100.00
73821;BME280;62150;43.582;1.456;2024-02-21T08:58:04;100836.13;;;10.12;100.00
73821;BME280;62150;43.582;1.456;2024-02-21T09:00:31;100827.88;;;10.01;100.00
73821;BME280;62150;43.582;1.456;2024-02-21T09:02:59;100835.22;;;10.15;100.00
73821;BME280;62150;43.582;1.456;2024-02-21T09:05:27;100833.47;;;10.15;100.00
73821;BME280;62150;43.582;1.456;2024-02-21T09:07:54;100842.28;;;9.71;100.00
73821;BME280;62150;43.582;1.456;2024-02-21T09:10:22;100841.50;;;9.33;100.00
73821;BME280;62150;43.582;1.456;2024-02-21T09:12:50;100827.25;;;9.91;100.00
73821;BME280;62150;43.582;1.456;2024-02-21T09:15:18;100833.44;;;10.17;100.00
73821;BME280;62150;43.582;1.456;2024-02-21T09:17:46;100821.34;;;10.22;100.00
73821;BME280;62150;43.582;1.456;2024-02-21T09:20:14;100820.06;;;10.38;100.00
73821;BME280;62150;43.582;1.456;2024-02-21T09:22:42;100803.66;;;10.42;100.00
73821;BME280;62150;43.582;1.456;2024-02-21T09:25:10;100802.09;;;10.38;100.00
73821;BME280;62150;43.582;1.456;2024-02-21T09:27:38;100804.09;;;10.27;100.00
73821;BME280;62150;43.582;1.456;2024-02-21T09:30:07;100810.28;;;10.51;100.00
73821;BME280;62150;43.582;1.456;2024-02-21T09:32:36;100809.53;;;10.47;100.00
73821;BME280;62150;43.582;1.456;2024-02-21T09:35:04;100793.50;;;10.39;100.00
73821;BME280;62150;43.582;1.456;2024-02-21T09:37:32;100787.22;;;10.49;100.00
73821;BME280;62150;43.582;1.456;2024-02-21T09:40:00;100785.69;;;10.42;100.00
73821;BME280;62150;43.582;1.456;2024-02-21T09:42:34;100778.09;;;10.39;100.00
73821;BME280;62150;43.582;1.456;2024-02-21T09:45:05;100782.91;;;10.50;100.00
73821;BME280;62150;43.582;1.456;2024-02-21T09:47:43;100780.66;;;10.39;100.00
73821;BME280;62150;43.582;1.456;2024-02-21T09:50:14;100781.44;;;10.41;100.00
73821;BME280;62150;43.582;1.456;2024-02-21T09:52:44;100779.59;;;10.46;100.00
73821;BME280;62150;43.582;1.456;2024-02-21T09:55:11;100778.56;;;10.52;100.00
73821;BME280;62150;43.582;1.456;2024-02-21T09:57:40;100773.44;;;10.52;100.00
73821;BME280;62150;43.582;1.456;2024-02-21T10:00:09;100774.50;;;10.74;100.00
73821;BME280;62150;43.582;1.456;2024-02-21T10:02:39;100779.50;;;10.79;100.00
73821;BME280;62150;43.582;1.456;2024-02-21T10:05:07;100777.66;;;10.82;100.00
73821;BME280;62150;43.582;1.456;2024-02-21T10:07:35;100781.78;;;10.88;100.00
73821;BME280;62150;43.582;1.456;2024-02-21T10:10:05;100767.28;;;11.13;100.00
73821;BME280;62150;43.582;1.456;2024-02-21T10:12:32;100775.69;;;11.18;100.00
73821;BME280;62150;43.582;1.456;2024-02-21T10:15:03;100776.88;;;11.36;100.00
73821;BME280;62150;43.582;1.456;2024-02-21T10:17:32;100770.84;;;11.37;100.00
73821;BME280;62150;43.582;1.456;2024-02-21T10:20:08;100781.41;;;11.54;100.00
73821;BME280;62150;43.582;1.456;2024-02-21T10:22:37;100772.75;;;11.57;100.00
73821;BME280;62150;43.582;1.456;2024-02-21T10:25:09;100786.94;;;11.68;100.00
73821;BME280;62150;43.582;1.456;2024-02-21T10:27:37;100793.81;;;11.94;100.00
73821;BME280;62150;43.582;1.456;2024-02-21T10:30:07;100789.41;;;11.98;100.00
73821;BME280;62150;43.582;1.456;2024-02-21T10:32:35;100792.22;;;12.15;100.00
73821;BME280;62150;43.582;1.456;2024-02-21T10:35:04;100787.06;;;12.40;100.00
73821;BME280;62150;43.582;1.456;2024-02-21T10:37:33;100790.06;;;12.51;100.00
73821;BME280;62150;43.582;1.456;2024-02-21T10:40:01;100788.66;;;12.66;100.00
73821;BME280;62150;43.582;1.456;2024-02-21T10:42:32;100782.44;;;12.71;100.00
73821;BME280;62150;43.582;1.456;2024-02-21T10:45:05;100785.25;;;12.65;100.00
73821;BME280;62150;43.582;1.456;2024-02-21T10:47:36;100771.97;;;12.53;100.00
73821;BME280;62150;43.582;1.456;2024-02-21T10:50:08;100756.44;;;12.78;100.00
73821;BME280;62150;43.582;1.456;2024-02-21T10:52:47;100762.00;;;12.89;100.00
73821;BME280;62150;43.582;1.456;2024-02-21T10:55:19;100755.59;;;12.77;100.00
73821;BME280;62150;43.582;1.456;2024-02-21T10:57:50;100756.31;;;12.81;100.00
73821;BME280;62150;43.582;1.456;2024-02-21T11:00:19;100760.81;;;13.19;100.00
73821;BME280;62150;43.582;1.456;2024-02-21T11:02:47;100753.06;;;13.41;100.00
73821;BME280;62150;43.582;1.456;2024-02-21T11:05:16;100756.97;;;13.51;100.00
73821;BME280;62150;43.582;1.456;2024-02-21T11:07:45;100753.41;;;13.54;100.00
73821;BME280;62150;43.582;1.456;2024-02-21T11:10:22;100747.06;;;13.40;100.00
73821;BME280;62150;43.582;1.456;2024-02-21T11:12:52;100741.41;;;13.73;100.00
73821;BME280;62150;43.582;1.456;2024-02-21T11:15:24;100743.19;;;13.91;100.00
73821;BME280;62150;43.582;1.456;2024-02-21T11:17:55;100737.69;;;14.19;100.00
73821;BME280;62150;43.582;1.456;2024-02-21T11:20:33;100727.88;;;13.87;100.00
73821;BME280;62150;43.582;1.456;2024-02-21T11:23:03;100731.19;;;13.90;100.00
73821;BME280;62150;43.582;1.456;2024-02-21T11:25:30;100724.97;;;14.15;100.00
73821;BME280;62150;43.582;1.456;2024-02-21T11:28:00;100725.72;;;14.35;100.00
73821;BME280;62150;43.582;1.456;2024-02-21T11:30:29;100722.09;;;14.39;100.00
73821;BME280;62150;43.582;1.456;2024-02-21T11:33:01;100720.22;;;14.62;100.00
73821;BME280;62150;43.582;1.456;2024-02-21T11:35:32;100729.72;;;14.80;100.00
73821;BME280;62150;43.582;1.456;2024-02-21T11:38:10;100728.50;;;14.51;100.00
73821;BME280;62150;43.582;1.456;2024-02-21T11:40:41;100720.28;;;14.60;100.00
73821;BME280;62150;43.582;1.456;2024-02-21T11:43:09;100719.06;;;14.50;100.00
73821;BME280;62150;43.582;1.456;2024-02-21T11:45:36;100707.84;;;14.68;100.00
73821;BME280;62150;43.582;1.456;2024-02-21T11:48:06;100704.94;;;14.93;100.00
73821;BME280;62150;43.582;1.456;2024-02-21T11:50:35;100705.50;;;15.17;100.00
73821;BME280;62150;43.582;1.456;2024-02-21T11:53:03;100701.03;;;15.21;100.00
73821;BME280;62150;43.582;1.456;2024-02-21T11:55:32;100701.38;;;15.30;100.00
73821;BME280;62150;43.582;1.456;2024-02-21T11:58:00;100695.84;;;15.38;100.00
73821;BME280;62150;43.582;1.456;2024-02-21T12:00:28;100699.09;;;15.41;100.00
73821;BME280;62150;43.582;1.456;2024-02-21T12:02:55;100693.09;;;15.75;100.00
73821;BME280;62150;43.582;1.456;2024-02-21T12:05:28;100690.50;;;15.75;100.00
73821;BME280;62150;43.582;1.456;2024-02-21T12:07:55;100687.03;;;15.92;100.00
73821;BME280;62150;43.582;1.456;2024-02-21T12:10:25;100687.81;;;15.77;100.00
73821;BME280;62150;43.582;1.456;2024-02-21T12:13:04;100679.91;;;15.63;100.00
73821;BME280;62150;43.582;1.456;2024-02-21T12:15:32;100680.75;;;15.96;100.00
73821;BME280;62150;43.582;1.456;2024-02-21T12:17:59;100670.66;;;16.07;100.00
73821;BME280;62150;43.582;1.456;2024-02-21T12:20:27;100667.41;;;16.04;100.00
73821;BME280;62150;43.582;1.456;2024-02-21T12:22:55;100662.56;;;16.29;100.00
73821;BME280;62150;43.582;1.456;2024-02-21T12:25:23;100653.28;;;16.41;100.00
73821;BME280;62150;43.582;1.456;2024-02-21T12:27:54;100646.16;;;16.45;100.00
73821;BME280;62150;43.582;1.456;2024-02-21T12:30:22;100655.28;;;16.52;100.00
73821;BME280;62150;43.582;1.456;2024-02-21T12:32:50;100640.97;;;16.60;100.00
73821;BME280;62150;43.582;1.456;2024-02-21T12:35:17;100640.72;;;16.81;100.00
73821;BME280;62150;43.582;1.456;2024-02-21T12:37:45;100644.00;;;16.37;100.00
73821;BME280;62150;43.582;1.456;2024-02-21T12:40:12;100634.50;;;16.83;100.00
73821;BME280;62150;43.582;1.456;2024-02-21T12:42:40;100632.59;;;17.01;100.00
73821;BME280;62150;43.582;1.456;2024-02-21T12:45:10;100626.22;;;16.77;100.00
73821;BME280;62150;43.582;1.456;2024-02-21T12:47:37;100623.16;;;17.00;100.00
73821;BME280;62150;43.582;1.456;2024-02-21T12:50:06;100608.56;;;16.83;100.00
73821;BME280;62150;43.582;1.456;2024-02-21T12:52:34;100609.47;;;16.82;100.00
73821;BME280;62150;43.582;1.456;2024-02-21T12:55:02;100617.22;;;16.98;100.00
73821;BME280;62150;43.582;1.456;2024-02-21T12:57:29;100613.59;;;17.30;100.00
73821;BME280;62150;43.582;1.456;2024-02-21T12:59:57;100602.91;;;17.49;100.00
73821;BME280;62150;43.582;1.456;2024-02-21T13:02:26;100603.56;;;17.53;100.00
73821;BME280;62150;43.582;1.456;2024-02-21T13:04:53;100599.38;;;17.50;100.00
73821;BME280;62150;43.582;1.456;2024-02-21T13:07:21;100605.72;;;17.60;100.00
73821;BME280;62150;43.582;1.456;2024-02-21T13:09:48;100593.81;;;17.85;100.00
73821;BME280;62150;43.582;1.456;2024-02-21T13:12:16;100590.84;;;17.91;100.00
73821;BME280;62150;43.582;1.456;2024-02-21T13:14:43;100587.28;;;17.65;100.00
73821;BME280;62150;43.582;1.456;2024-02-21T13:17:11;100580.50;;;18.03;100.00
73821;BME280;62150;43.582;1.456;2024-02-21T13:19:40;100572.75;;;17.89;100.00
73821;BME280;62150;43.582;1.456;2024-02-21T13:22:07;100565.91;;;18.15;100.00
73821;BME280;62150;43.582;1.456;2024-02-21T13:24:35;100554.09;;;18.24;100.00
73821;BME280;62150;43.582;1.456;2024-02-21T13:27:03;100552.59;;;17.93;100.00
73821;BME280;62150;43.582;1.456;2024-02-21T13:29:30;100544.72;;;18.21;100.00
73821;BME280;62150;43.582;1.456;2024-02-21T13:31:58;100539.28;;;18.51;100.00
73821;BME280;62150;43.582;1.456;2024-02-21T13:34:26;100538.97;;;18.56;100.00
73821;BME280;62150;43.582;1.456;2024-02-21T13:36:54;100536.34;;;18.43;100.00
73821;BME280;62150;43.582;1.456;2024-02-21T13:39:22;100527.31;;;18.49;100.00
73821;BME280;62150;43.582;1.456;2024-02-21T13:41:50;100528.31;;;18.86;100.00
73821;BME280;62150;43.582;1.456;2024-02-21T13:44:17;100520.19;;;18.38;100.00
73821;BME280;62150;43.582;1.456;2024-02-21T13:46:45;100511.00;;;18.20;100.00
73821;BME280;62150;43.582;1.456;2024-02-21T13:49:12;100510.59;;;18.26;100.00
73821;BME280;62150;43.582;1.456;2024-02-21T13:51:40;100509.28;;;18.85;100.00
73821;BME280;62150;43.582;1.456;2024-02-21T13:54:10;100512.94;;;18.95;100.00
73821;BME280;62150;43.582;1.456;2024-02-21T13:56:40;100516.34;;;19.08;100.00
73821;BME280;62150;43.582;1.456;2024-02-21T13:59:08;100504.59;;;18.90;100.00
73821;BME280;62150;43.582;1.456;2024-02-21T14:01:35;100499.28;;;18.92;99.47
73821;BME280;62150;43.582;1.456;2024-02-21T14:04:03;100495.13;;;19.02;100.00
73821;BME280;62150;43.582;1.456;2024-02-21T14:06:31;100487.47;;;19.24;99.25
73821;BME280;62150;43.582;1.456;2024-02-21T14:08:59;100486.03;;;19.33;95.86
73821;BME280;62150;43.582;1.456;2024-02-21T14:11:29;100481.69;;;19.45;95.22
73821;BME280;62150;43.582;1.456;2024-02-21T14:13:57;100478.69;;;19.51;96.83
73821;BME280;62150;43.582;1.456;2024-02-21T14:16:25;100473.28;;;19.54;92.70
73821;BME280;62150;43.582;1.456;2024-02-21T14:18:52;100479.03;;;19.33;94.82
73821;BME280;62150;43.582;1.456;2024-02-21T14:21:20;100466.50;;;19.51;94.05
73821;BME280;62150;43.582;1.456;2024-02-21T14:23:48;100479.53;;;19.51;92.83
73821;BME280;62150;43.582;1.456;2024-02-21T14:26:15;100467.47;;;19.74;94.75
73821;BME280;62150;43.582;1.456;2024-02-21T14:28:44;100460.50;;;19.74;91.48
73821;BME280;62150;43.582;1.456;2024-02-21T14:31:12;100457.81;;;19.87;92.36
73821;BME280;62150;43.582;1.456;2024-02-21T14:33:39;100453.50;;;19.75;95.83
73821;BME280;62150;43.582;1.456;2024-02-21T14:36:07;100457.06;;;19.74;96.05
73821;BME280;62150;43.582;1.456;2024-02-21T14:38:34;100459.41;;;19.77;89.66
73821;BME280;62150;43.582;1.456;2024-02-21T14:41:02;100459.06;;;19.70;92.80
73821;BME280;62150;43.582;1.456;2024-02-21T14:43:30;100465.56;;;19.52;80.17
73821;BME280;62150;43.582;1.456;2024-02-21T14:45:59;100453.66;;;19.61;78.07
73821;BME280;62150;43.582;1.456;2024-02-21T14:48:26;100453.03;;;19.81;82.72
73821;BME280;62150;43.582;1.456;2024-02-21T14:50:55;100451.47;;;19.79;75.34
73821;BME280;62150;43.582;1.456;2024-02-21T14:53:22;100453.75;;;19.83;77.11
73821;BME280;62150;43.582;1.456;2024-02-21T14:55:50;100452.00;;;20.07;84.42
73821;BME280;62150;43.582;1.456;2024-02-21T14:58:17;100446.66;;;20.09;90.10
73821;BME280;62150;43.582;1.456;2024-02-21T15:00:45;100450.22;;;20.08;89.13
73821;BME280;62150;43.582;1.456;2024-02-21T15:03:16;100443.41;;;19.94;77.58
73821;BME280;62150;43.582;1.456;2024-02-21T15:05:45;100444.16;;;20.07;86.56
73821;BME280;62150;43.582;1.456;2024-02-21T15:08:13;100437.53;;;20.15;85.81
73821;BME280;62150;43.582;1.456;2024-02-21T15:10:43;100435.75;;;20.15;87.05
73821;BME280;62150;43.582;1.456;2024-02-21T15:13:10;100436.22;;;20.09;83.25
73821;BME280;62150;43.582;1.456;2024-02-21T15:15:38;100444.16;;;20.07;80.61
73821;BME280;62150;43.582;1.456;2024-02-21T15:18:05;100443.28;;;19.96;76.96
73821;BME280;62150;43.582;1.456;2024-02-21T15:20:36;100440.06;;;19.92;76.92
73821;BME280;62150;43.582;1.456;2024-02-21T15:23:04;100429.63;;;19.92;76.16
73821;BME280;62150;43.582;1.456;2024-02-21T15:25:31;100433.56;;;19.98;77.15
73821;BME280;62150;43.582;1.456;2024-02-21T15:28:00;100437.44;;;19.92;79.30
73821;BME280;62150;43.582;1.456;2024-02-21T15:30:28;100431.59;;;20.13;80.74
73821;BME280;62150;43.582;1.456;2024-02-21T15:32:57;100430.88;;;20.11;81.39
73821;BME280;62150;43.582;1.456;2024-02-21T15:35:27;100428.66;;;20.17;82.18
73821;BME280;62150;43.582;1.456;2024-02-21T15:37:57;100431.78;;;19.98;78.96
73821;BME280;62150;43.582;1.456;2024-02-21T15:40:25;100428.47;;;19.96;80.67
73821;BME280;62150;43.582;1.456;2024-02-21T15:42:52;100420.69;;;20.19;86.16
73821;BME280;62150;43.582;1.456;2024-02-21T15:45:20;100414.81;;;19.93;87.47
73821;BME280;62150;43.582;1.456;2024-02-21T15:47:48;100418.09;;;20.07;88.56
73821;BME280;62150;43.582;1.456;2024-02-21T15:50:16;100418.09;;;20.07;86.91
73821;BME280;62150;43.582;1.456;2024-02-21T15:52:45;100416.09;;;19.87;82.06
73821;BME280;62150;43.582;1.456;2024-02-21T15:55:14;100415.47;;;20.07;87.20
73821;BME280;62150;43.582;1.456;2024-02-21T15:57:43;100416.00;;;20.35;88.16
73821;BME280;62150;43.582;1.456;2024-02-21T16:00:11;100415.44;;;19.96;84.95
73821;BME280;62150;43.582;1.456;2024-02-21T16:02:39;100416.75;;;20.02;83.94
73821;BME280;62150;43.582;1.456;2024-02-21T16:05:08;100421.09;;;19.90;78.74
73821;BME280;62150;43.582;1.456;2024-02-21T16:07:36;100421.66;;;19.83;77.86
73821;BME280;62150;43.582;1.456;2024-02-21T16:10:05;100415.69;;;19.81;82.48
73821;BME280;62150;43.582;1.456;2024-02-21T16:12:34;100415.72;;;20.16;86.00
73821;BME280;62150;43.582;1.456;2024-02-21T16:15:04;100423.03;;;19.99;85.18
73821;BME280;62150;43.582;1.456;2024-02-21T16:17:32;100428.75;;;20.04;81.41
73821;BME280;62150;43.582;1.456;2024-02-21T16:20:00;100424.25;;;19.59;81.04
73821;BME280;62150;43.582;1.456;2024-02-21T16:22:27;100424.56;;;19.78;82.97
73821;BME280;62150;43.582;1.456;2024-02-21T16:24:55;100420.31;;;19.77;83.46
73821;BME280;62150;43.582;1.456;2024-02-21T16:27:22;100414.25;;;20.00;89.80
73821;BME280;62150;43.582;1.456;2024-02-21T16:29:52;100412.72;;;19.98;90.30
73821;BME280;62150;43.582;1.456;2024-02-21T16:32:19;100412.75;;;19.74;87.49
73821;BME280;62150;43.582;1.456;2024-02-21T16:34:47;100405.13;;;19.71;85.88
73821;BME280;62150;43.582;1.456;2024-02-21T16:37:14;100414.34;;;19.64;83.87
73821;BME280;62150;43.582;1.456;2024-02-21T16:39:42;100407.34;;;19.64;88.22
73821;BME280;62150;43.582;1.456;2024-02-21T16:42:09;100407.97;;;19.68;89.90
73821;BME280;62150;43.582;1.456;2024-02-21T16:44:37;100400.59;;;19.49;88.96
73821;BME280;62150;43.582;1.456;2024-02-21T16:47:06;100400.28;;;19.78;93.35
73821;BME280;62150;43.582;1.456;2024-02-21T16:49:34;100394.72;;;19.71;93.75
73821;BME280;62150;43.582;1.456;2024-02-21T16:52:02;100389.81;;;19.66;91.34
73821;BME280;62150;43.582;1.456;2024-02-21T16:54:30;100388.81;;;19.80;92.98
73821;BME280;62150;43.582;1.456;2024-02-21T16:56:57;100391.84;;;19.98;95.56
73821;BME280;62150;43.582;1.456;2024-02-21T16:59:25;100387.34;;;20.11;95.98
73821;BME280;62150;43.582;1.456;2024-02-21T17:01:53;100389.50;;;19.71;96.37
73821;BME280;62150;43.582;1.456;2024-02-21T17:04:22;100383.38;;;19.83;98.78
73821;BME280;62150;43.582;1.456;2024-02-21T17:06:49;100394.19;;;19.90;95.43
73821;BME280;62150;43.582;1.456;2024-02-21T17:09:17;100394.06;;;19.91;97.12
73821;BME280;62150;43.582;1.456;2024-02-21T17:11:44;100405.59;;;19.76;98.67
73821;BME280;62150;43.582;1.456;2024-02-21T17:14:12;100398.69;;;19.64;98.00
73821;BME280;62150;43.582;1.456;2024-02-21T17:16:40;100395.06;;;19.78;98.33
73821;BME280;62150;43.582;1.456;2024-02-21T17:19:07;100389.63;;;19.81;97.67
73821;BME280;62150;43.582;1.456;2024-02-21T17:21:38;100390.25;;;19.84;97.59
73821;BME280;62150;43.582;1.456;2024-02-21T17:24:06;100397.03;;;19.63;100.00
73821;BME280;62150;43.582;1.456;2024-02-21T17:26:33;100389.72;;;19.68;100.00